Gunter AFS, Alabama
Current Conditions -  °F | °C
As of 6:58 PM on Wednesday 26 Nov 2014 (Local Time) from KMXF Reporting Station
Clear Clear  
Wind Chill: 46°   Ceiling: Unl
Heat Index: 49°   Visibility: 10mi
Dew Point: 31°   Wind: 6mph
Humidity: 51%   Direction: 190°S
Pressure: 30.12"   Gusts: NA
Location:  32.4072°N, 86.2486°W
Report Text: KMXF 270058Z AUTO 19005KT 10SM CLR 09/00 A3012 RMK AO2 SLP203 T00921005
Loading
Personal Weather Stations






























Interactive Weather Map New forecast layout! Learn more

10-Day Weather Forecast

Advertisements
Track Severe Weather on mobile